sensor_id;sensor_type;location;lat;lon;timestamp;temperature;humidity
13389;DHT22;6764;53.250;10.410;2022-09-09T00:01:41;15.60;99.90
13389;DHT22;6764;53.250;10.410;2022-09-09T00:04:32;15.60;99.90
13389;DHT22;6764;53.250;10.410;2022-09-09T00:07:16;15.50;99.90
13389;DHT22;6764;53.250;10.410;2022-09-09T00:09:47;15.50;99.90
13389;DHT22;6764;53.250;10.410;2022-09-09T00:12:20;15.50;99.90
13389;DHT22;6764;53.250;10.410;2022-09-09T00:15:03;15.50;99.90
13389;DHT22;6764;53.250;10.410;2022-09-09T00:17:53;15.50;99.90
13389;DHT22;6764;53.250;10.410;2022-09-09T00:23:24;15.40;99.90
13389;DHT22;6764;53.250;10.410;2022-09-09T00:31:28;15.50;99.90
13389;DHT22;6764;53.250;10.410;2022-09-09T00:34:29;15.50;99.90
13389;DHT22;6764;53.250;10.410;2022-09-09T00:36:50;15.50;99.90
13389;DHT22;6764;53.250;10.410;2022-09-09T00:39:41;15.40;99.90
13389;DHT22;6764;53.250;10.410;2022-09-09T00:42:14;15.40;99.90
13389;DHT22;6764;53.250;10.410;2022-09-09T00:47:19;15.40;99.90
13389;DHT22;6764;53.250;10.410;2022-09-09T00:50:03;15.40;99.90
13389;DHT22;6764;53.250;10.410;2022-09-09T00:52:58;15.40;99.90
13389;DHT22;6764;53.250;10.410;2022-09-09T00:55:42;15.40;99.90
13389;DHT22;6764;53.250;10.410;2022-09-09T00:58:11;15.40;99.90
13389;DHT22;6764;53.250;10.410;2022-09-09T01:03:22;15.40;99.90
13389;DHT22;6764;53.250;10.410;2022-09-09T01:08:55;15.40;99.90
13389;DHT22;6764;53.250;10.410;2022-09-09T01:11:32;15.40;99.90
13389;DHT22;6764;53.250;10.410;2022-09-09T01:16:54;15.40;99.90
13389;DHT22;6764;53.250;10.410;2022-09-09T01:25:03;15.30;99.90
13389;DHT22;6764;53.250;10.410;2022-09-09T01:27:35;15.30;99.90
13389;DHT22;6764;53.250;10.410;2022-09-09T01:30:08;15.20;99.90
13389;DHT22;6764;53.250;10.410;2022-09-09T01:32:53;15.20;99.90
13389;DHT22;6764;53.250;10.410;2022-09-09T01:35:37;15.20;99.90
13389;DHT22;6764;53.250;10.410;2022-09-09T01:38:03;15.20;99.90
13389;DHT22;6764;53.250;10.410;2022-09-09T01:40:29;15.10;99.90
13389;DHT22;6764;53.250;10.410;2022-09-09T01:42:55;15.10;99.90
13389;DHT22;6764;53.250;10.410;2022-09-09T01:45:22;15.10;99.90
13389;DHT22;6764;53.250;10.410;2022-09-09T01:47:47;15.10;99.90
13389;DHT22;6764;53.250;10.410;2022-09-09T01:50:15;15.00;99.90
13389;DHT22;6764;53.250;10.410;2022-09-09T01:52:43;15.00;99.90
13389;DHT22;6764;53.250;10.410;2022-09-09T01:55:09;15.00;99.90
13389;DHT22;6764;53.250;10.410;2022-09-09T01:58:01;14.90;99.90
13389;DHT22;6764;53.250;10.410;2022-09-09T02:00:24;14.90;99.90
13389;DHT22;6764;53.250;10.410;2022-09-09T02:03:00;14.90;99.90
13389;DHT22;6764;53.250;10.410;2022-09-09T02:05:44;14.80;99.90
13389;DHT22;6764;53.250;10.410;2022-09-09T02:08:19;14.70;99.90
13389;DHT22;6764;53.250;10.410;2022-09-09T02:11:01;14.70;99.90
13389;DHT22;6764;53.250;10.410;2022-09-09T02:13:29;14.70;99.90
13389;DHT22;6764;53.250;10.410;2022-09-09T02:16:18;14.70;99.90
13389;DHT22;6764;53.250;10.410;2022-09-09T02:18:57;14.70;99.90
13389;DHT22;6764;53.250;10.410;2022-09-09T02:21:28;14.70;99.90
13389;DHT22;6764;53.250;10.410;2022-09-09T02:23:55;14.70;99.90
13389;DHT22;6764;53.250;10.410;2022-09-09T02:26:23;14.70;99.90
13389;DHT22;6764;53.250;10.410;2022-09-09T02:28:51;14.70;99.90
13389;DHT22;6764;53.250;10.410;2022-09-09T02:31:20;14.70;99.90
13389;DHT22;6764;53.250;10.410;2022-09-09T02:33:52;14.70;99.90
13389;DHT22;6764;53.250;10.410;2022-09-09T02:36:22;14.60;99.90
13389;DHT22;6764;53.250;10.410;2022-09-09T02:38:49;14.60;99.90
13389;DHT22;6764;53.250;10.410;2022-09-09T02:41:20;14.60;99.90
13389;DHT22;6764;53.250;10.410;2022-09-09T02:43:47;14.60;99.90
13389;DHT22;6764;53.250;10.410;2022-09-09T02:46:29;14.60;99.90
13389;DHT22;6764;53.250;10.410;2022-09-09T02:49:09;14.60;99.90
13389;DHT22;6764;53.250;10.410;2022-09-09T02:54:28;14.50;99.90
13389;DHT22;6764;53.250;10.410;2022-09-09T02:57:06;14.50;99.90
13389;DHT22;6764;53.250;10.410;2022-09-09T02:59:33;14.40;99.90
13389;DHT22;6764;53.250;10.410;2022-09-09T03:01:59;14.40;99.90
13389;DHT22;6764;53.250;10.410;2022-09-09T03:04:24;14.40;99.90
13389;DHT22;6764;53.250;10.410;2022-09-09T03:06:50;14.40;99.90
13389;DHT22;6764;53.250;10.410;2022-09-09T03:09:16;14.40;99.90
13389;DHT22;6764;53.250;10.410;2022-09-09T03:11:42;14.40;99.90
13389;DHT22;6764;53.250;10.410;2022-09-09T03:14:07;14.40;99.90
13389;DHT22;6764;53.250;10.410;2022-09-09T03:16:33;14.40;99.90
13389;DHT22;6764;53.250;10.410;2022-09-09T03:19:00;14.40;99.90
13389;DHT22;6764;53.250;10.410;2022-09-09T03:21:26;14.40;99.90
13389;DHT22;6764;53.250;10.410;2022-09-09T03:23:51;14.30;99.90
13389;DHT22;6764;53.250;10.410;2022-09-09T03:26:17;14.30;99.90
13389;DHT22;6764;53.250;10.410;2022-09-09T03:28:43;14.30;99.90
13389;DHT22;6764;53.250;10.410;2022-09-09T03:31:10;14.40;99.90
13389;DHT22;6764;53.250;10.410;2022-09-09T03:33:39;14.40;99.90
13389;DHT22;6764;53.250;10.410;2022-09-09T03:36:06;14.40;99.90
13389;DHT22;6764;53.250;10.410;2022-09-09T03:38:33;14.40;99.90
13389;DHT22;6764;53.250;10.410;2022-09-09T03:41:00;14.40;99.90
13389;DHT22;6764;53.250;10.410;2022-09-09T03:43:27;14.40;99.90
13389;DHT22;6764;53.250;10.410;2022-09-09T03:45:53;14.40;99.90
13389;DHT22;6764;53.250;10.410;2022-09-09T03:48:22;14.40;99.90
13389;DHT22;6764;53.250;10.410;2022-09-09T03:50:50;14.40;99.90
13389;DHT22;6764;53.250;10.410;2022-09-09T03:53:17;14.50;99.90
13389;DHT22;6764;53.250;10.410;2022-09-09T03:55:47;14.50;99.90
13389;DHT22;6764;53.250;10.410;2022-09-09T03:58:14;14.50;99.90
13389;DHT22;6764;53.250;10.410;2022-09-09T04:00:40;14.40;99.90
13389;DHT22;6764;53.250;10.410;2022-09-09T04:03:11;14.40;99.90
13389;DHT22;6764;53.250;10.410;2022-09-09T04:05:38;14.40;99.90
13389;DHT22;6764;53.250;10.410;2022-09-09T04:08:06;14.40;99.90
13389;DHT22;6764;53.250;10.410;2022-09-09T04:10:32;14.40;99.90
13389;DHT22;6764;53.250;10.410;2022-09-09T04:12:58;14.40;99.90
13389;DHT22;6764;53.250;10.410;2022-09-09T04:15:24;14.40;99.90
13389;DHT22;6764;53.250;10.410;2022-09-09T04:17:50;14.40;99.90
13389;DHT22;6764;53.250;10.410;2022-09-09T04:20:16;14.40;99.90
13389;DHT22;6764;53.250;10.410;2022-09-09T04:22:41;14.50;99.90
13389;DHT22;6764;53.250;10.410;2022-09-09T04:25:07;14.50;99.90
13389;DHT22;6764;53.250;10.410;2022-09-09T04:27:33;14.50;99.90
13389;DHT22;6764;53.250;10.410;2022-09-09T04:29:59;14.60;99.90
13389;DHT22;6764;53.250;10.410;2022-09-09T04:32:24;14.60;99.90
13389;DHT22;6764;53.250;10.410;2022-09-09T04:34:52;14.60;99.90
13389;DHT22;6764;53.250;10.410;2022-09-09T04:37:18;14.60;99.90
13389;DHT22;6764;53.250;10.410;2022-09-09T04:39:44;14.70;99.90
13389;DHT22;6764;53.250;10.410;2022-09-09T04:42:10;14.70;99.90
13389;DHT22;6764;53.250;10.410;2022-09-09T04:44:38;14.80;99.90
13389;DHT22;6764;53.250;10.410;2022-09-09T04:47:04;14.80;99.90
13389;DHT22;6764;53.250;10.410;2022-09-09T04:49:30;14.80;99.90
13389;DHT22;6764;53.250;10.410;2022-09-09T04:51:56;14.90;99.90
13389;DHT22;6764;53.250;10.410;2022-09-09T04:54:22;14.90;99.90
13389;DHT22;6764;53.250;10.410;2022-09-09T04:56:50;14.90;99.90
13389;DHT22;6764;53.250;10.410;2022-09-09T04:59:16;15.00;99.90
13389;DHT22;6764;53.250;10.410;2022-09-09T05:01:41;15.00;99.90
13389;DHT22;6764;53.250;10.410;2022-09-09T05:04:07;15.00;99.90
13389;DHT22;6764;53.250;10.410;2022-09-09T05:06:34;15.00;99.90
13389;DHT22;6764;53.250;10.410;2022-09-09T05:09:01;15.10;99.90
13389;DHT22;6764;53.250;10.410;2022-09-09T05:11:29;15.10;99.90
13389;DHT22;6764;53.250;10.410;2022-09-09T05:13:55;15.10;99.90
13389;DHT22;6764;53.250;10.410;2022-09-09T05:16:21;15.10;99.90
13389;DHT22;6764;53.250;10.410;2022-09-09T05:18:48;15.10;99.90
13389;DHT22;6764;53.250;10.410;2022-09-09T05:21:16;15.10;99.90
13389;DHT22;6764;53.250;10.410;2022-09-09T05:23:42;15.10;99.90
13389;DHT22;6764;53.250;10.410;2022-09-09T05:26:12;15.10;99.90
13389;DHT22;6764;53.250;10.410;2022-09-09T05:28:38;15.10;99.90
13389;DHT22;6764;53.250;10.410;2022-09-09T05:31:06;15.10;99.90
13389;DHT22;6764;53.250;10.410;2022-09-09T05:33:37;15.10;99.90
13389;DHT22;6764;53.250;10.410;2022-09-09T05:36:08;15.10;99.90
13389;DHT22;6764;53.250;10.410;2022-09-09T05:38:34;15.10;99.90
13389;DHT22;6764;53.250;10.410;2022-09-09T05:41:01;15.10;99.90
13389;DHT22;6764;53.250;10.410;2022-09-09T05:43:28;15.20;99.90
13389;DHT22;6764;53.250;10.410;2022-09-09T05:46:05;15.20;99.90
13389;DHT22;6764;53.250;10.410;2022-09-09T05:48:32;15.30;99.90
13389;DHT22;6764;53.250;10.410;2022-09-09T05:51:00;15.30;99.90
13389;DHT22;6764;53.250;10.410;2022-09-09T05:53:26;15.40;99.90
13389;DHT22;6764;53.250;10.410;2022-09-09T05:56:00;15.50;99.90
13389;DHT22;6764;53.250;10.410;2022-09-09T05:58:25;15.50;99.90
13389;DHT22;6764;53.250;10.410;2022-09-09T06:00:51;15.60;99.90
13389;DHT22;6764;53.250;10.410;2022-09-09T06:03:16;15.60;99.90
13389;DHT22;6764;53.250;10.410;2022-09-09T06:05:42;15.60;99.90
13389;DHT22;6764;53.250;10.410;2022-09-09T06:08:08;15.70;99.90
13389;DHT22;6764;53.250;10.410;2022-09-09T06:10:34;15.70;99.90
13389;DHT22;6764;53.250;10.410;2022-09-09T06:13:00;15.70;99.90
13389;DHT22;6764;53.250;10.410;2022-09-09T06:15:25;15.70;99.90
13389;DHT22;6764;53.250;10.410;2022-09-09T06:17:55;15.70;99.90
13389;DHT22;6764;53.250;10.410;2022-09-09T06:20:21;15.70;99.90
13389;DHT22;6764;53.250;10.410;2022-09-09T06:22:47;15.80;99.90
13389;DHT22;6764;53.250;10.410;2022-09-09T06:25:14;15.80;99.90
13389;DHT22;6764;53.250;10.410;2022-09-09T06:27:40;15.80;99.90
13389;DHT22;6764;53.250;10.410;2022-09-09T06:30:07;15.80;99.90
13389;DHT22;6764;53.250;10.410;2022-09-09T06:32:33;15.90;99.90
13389;DHT22;6764;53.250;10.410;2022-09-09T06:35:00;15.90;99.90
13389;DHT22;6764;53.250;10.410;2022-09-09T06:37:26;16.00;99.90
13389;DHT22;6764;53.250;10.410;2022-09-09T06:39:52;16.00;99.90
13389;DHT22;6764;53.250;10.410;2022-09-09T06:42:19;16.10;99.90
13389;DHT22;6764;53.250;10.410;2022-09-09T06:44:45;16.20;99.90
13389;DHT22;6764;53.250;10.410;2022-09-09T06:47:11;16.20;99.90
13389;DHT22;6764;53.250;10.410;2022-09-09T06:49:36;16.20;99.90
13389;DHT22;6764;53.250;10.410;2022-09-09T06:52:02;16.20;99.90
13389;DHT22;6764;53.250;10.410;2022-09-09T06:54:27;16.20;99.90
13389;DHT22;6764;53.250;10.410;2022-09-09T06:56:53;16.20;99.90
13389;DHT22;6764;53.250;10.410;2022-09-09T06:59:19;16.30;99.90
13389;DHT22;6764;53.250;10.410;2022-09-09T07:01:45;16.40;99.90
13389;DHT22;6764;53.250;10.410;2022-09-09T07:04:12;16.60;99.90
13389;DHT22;6764;53.250;10.410;2022-09-09T07:06:42;16.80;99.90
13389;DHT22;6764;53.250;10.410;2022-09-09T07:09:13;16.90;99.90
13389;DHT22;6764;53.250;10.410;2022-09-09T07:11:50;17.10;99.90
13389;DHT22;6764;53.250;10.410;2022-09-09T07:14:18;17.40;99.90
13389;DHT22;6764;53.250;10.410;2022-09-09T07:16:44;17.50;99.90
13389;DHT22;6764;53.250;10.410;2022-09-09T07:19:11;17.60;99.90
13389;DHT22;6764;53.250;10.410;2022-09-09T07:21:38;17.70;99.90
13389;DHT22;6764;53.250;10.410;2022-09-09T07:24:06;17.90;99.90
13389;DHT22;6764;53.250;10.410;2022-09-09T07:26:35;17.80;99.90
13389;DHT22;6764;53.250;10.410;2022-09-09T07:29:01;17.90;99.90
13389;DHT22;6764;53.250;10.410;2022-09-09T07:31:29;18.20;99.90
13389;DHT22;6764;53.250;10.410;2022-09-09T07:33:56;18.40;99.90
13389;DHT22;6764;53.250;10.410;2022-09-09T07:36:27;18.70;99.90
13389;DHT22;6764;53.250;10.410;2022-09-09T07:38:55;18.90;99.90
13389;DHT22;6764;53.250;10.410;2022-09-09T07:41:28;18.90;99.90
13389;DHT22;6764;53.250;10.410;2022-09-09T07:43:55;18.80;99.90
13389;DHT22;6764;53.250;10.410;2022-09-09T07:46:23;19.10;99.90
13389;DHT22;6764;53.250;10.410;2022-09-09T07:48:55;19.30;99.90
13389;DHT22;6764;53.250;10.410;2022-09-09T07:51:24;19.60;99.90
13389;DHT22;6764;53.250;10.410;2022-09-09T07:53:57;19.70;99.90
13389;DHT22;6764;53.250;10.410;2022-09-09T07:56:24;19.90;99.90
13389;DHT22;6764;53.250;10.410;2022-09-09T07:58:51;20.10;99.90
13389;DHT22;6764;53.250;10.410;2022-09-09T08:03:57;20.20;99.90
13389;DHT22;6764;53.250;10.410;2022-09-09T08:06:32;20.40;99.90
13389;DHT22;6764;53.250;10.410;2022-09-09T08:08:59;20.50;99.90
13389;DHT22;6764;53.250;10.410;2022-09-09T08:11:27;20.40;99.90
13389;DHT22;6764;53.250;10.410;2022-09-09T08:13:53;20.50;99.90
13389;DHT22;6764;53.250;10.410;2022-09-09T08:16:24;20.60;99.90
13389;DHT22;6764;53.250;10.410;2022-09-09T08:18:51;20.70;99.90
13389;DHT22;6764;53.250;10.410;2022-09-09T08:21:22;20.70;99.90
13389;DHT22;6764;53.250;10.410;2022-09-09T08:23:50;20.60;99.90
13389;DHT22;6764;53.250;10.410;2022-09-09T08:28:46;20.40;99.90
13389;DHT22;6764;53.250;10.410;2022-09-09T08:31:26;20.60;99.90
13389;DHT22;6764;53.250;10.410;2022-09-09T08:33:54;20.80;99.90
13389;DHT22;6764;53.250;10.410;2022-09-09T08:36:21;20.70;99.90
13389;DHT22;6764;53.250;10.410;2022-09-09T08:38:52;20.70;99.90
13389;DHT22;6764;53.250;10.410;2022-09-09T08:44:22;21.00;99.90
13389;DHT22;6764;53.250;10.410;2022-09-09T08:47:10;21.30;99.90
13389;DHT22;6764;53.250;10.410;2022-09-09T08:53:17;21.30;99.90
13389;DHT22;6764;53.250;10.410;2022-09-09T09:09:28;22.40;99.90
13389;DHT22;6764;53.250;10.410;2022-09-09T09:12:00;23.80;99.90
13389;DHT22;6764;53.250;10.410;2022-09-09T09:14:32;25.20;99.90
13389;DHT22;6764;53.250;10.410;2022-09-09T09:17:03;25.70;99.90
13389;DHT22;6764;53.250;10.410;2022-09-09T09:19:31;25.60;99.90
13389;DHT22;6764;53.250;10.410;2022-09-09T09:24:53;26.40;99.90
13389;DHT22;6764;53.250;10.410;2022-09-09T09:27:43;26.30;99.90
13389;DHT22;6764;53.250;10.410;2022-09-09T09:30:18;25.50;99.90
13389;DHT22;6764;53.250;10.410;2022-09-09T09:33:35;25.10;99.90
13389;DHT22;6764;53.250;10.410;2022-09-09T09:35:40;24.80;99.90
13389;DHT22;6764;53.250;10.410;2022-09-09T09:38:32;24.00;99.90
13389;DHT22;6764;53.250;10.410;2022-09-09T09:40:59;23.80;99.90
13389;DHT22;6764;53.250;10.410;2022-09-09T09:43:30;23.30;99.90
13389;DHT22;6764;53.250;10.410;2022-09-09T09:45:57;22.70;99.90
13389;DHT22;6764;53.250;10.410;2022-09-09T09:48:27;22.30;99.90
13389;DHT22;6764;53.250;10.410;2022-09-09T09:51:02;22.30;99.90
13389;DHT22;6764;53.250;10.410;2022-09-09T09:53:34;22.40;99.90
13389;DHT22;6764;53.250;10.410;2022-09-09T09:56:02;22.60;99.90
13389;DHT22;6764;53.250;10.410;2022-09-09T09:58:31;23.00;99.90
13389;DHT22;6764;53.250;10.410;2022-09-09T10:00:59;23.30;99.90
13389;DHT22;6764;53.250;10.410;2022-09-09T10:05:52;23.40;99.90
13389;DHT22;6764;53.250;10.410;2022-09-09T10:08:18;23.40;99.90
13389;DHT22;6764;53.250;10.410;2022-09-09T10:11:06;23.60;99.90
13389;DHT22;6764;53.250;10.410;2022-09-09T10:16:36;23.70;99.90
13389;DHT22;6764;53.250;10.410;2022-09-09T10:19:13;23.80;99.90
13389;DHT22;6764;53.250;10.410;2022-09-09T10:32:27;24.30;99.90
13389;DHT22;6764;53.250;10.410;2022-09-09T10:34:57;25.20;99.90
13389;DHT22;6764;53.250;10.410;2022-09-09T10:40:28;27.00;99.90
13389;DHT22;6764;53.250;10.410;2022-09-09T10:48:35;28.90;97.80
13389;DHT22;6764;53.250;10.410;2022-09-09T10:51:10;28.70;96.90
13389;DHT22;6764;53.250;10.410;2022-09-09T10:56:19;28.50;97.20
13389;DHT22;6764;53.250;10.410;2022-09-09T10:58:53;28.90;97.40
13389;DHT22;6764;53.250;10.410;2022-09-09T11:01:24;29.50;96.10
13389;DHT22;6764;53.250;10.410;2022-09-09T11:03:58;29.30;96.10
13389;DHT22;6764;53.250;10.410;2022-09-09T11:06:32;29.70;95.50
13389;DHT22;6764;53.250;10.410;2022-09-09T11:09:02;30.00;93.80
13389;DHT22;6764;53.250;10.410;2022-09-09T11:11:56;30.00;93.10
13389;DHT22;6764;53.250;10.410;2022-09-09T11:17:01;27.70;95.30
13389;DHT22;6764;53.250;10.410;2022-09-09T11:19:34;26.60;96.90
13389;DHT22;6764;53.250;10.410;2022-09-09T11:22:16;25.90;98.40
13389;DHT22;6764;53.250;10.410;2022-09-09T11:24:53;25.40;99.70
13389;DHT22;6764;53.250;10.410;2022-09-09T11:36:43;24.50;99.90
13389;DHT22;6764;53.250;10.410;2022-09-09T11:42:27;24.00;99.90
13389;DHT22;6764;53.250;10.410;2022-09-09T11:44:52;23.80;99.90
13389;DHT22;6764;53.250;10.410;2022-09-09T11:47:28;23.50;99.90
13389;DHT22;6764;53.250;10.410;2022-09-09T11:52:43;23.10;99.90
13389;DHT22;6764;53.250;10.410;2022-09-09T11:55:27;22.40;99.90
13389;DHT22;6764;53.250;10.410;2022-09-09T12:00:42;21.60;99.90
13389;DHT22;6764;53.250;10.410;2022-09-09T12:03:33;21.40;99.90
13389;DHT22;6764;53.250;10.410;2022-09-09T12:06:10;21.30;99.90
13389;DHT22;6764;53.250;10.410;2022-09-09T12:08:37;21.20;99.90
13389;DHT22;6764;53.250;10.410;2022-09-09T12:11:06;21.20;99.90
13389;DHT22;6764;53.250;10.410;2022-09-09T12:13:32;21.20;99.90
13389;DHT22;6764;53.250;10.410;2022-09-09T12:15:59;21.20;99.90
13389;DHT22;6764;53.250;10.410;2022-09-09T12:18:38;21.20;99.90
13389;DHT22;6764;53.250;10.410;2022-09-09T12:21:21;21.30;99.90
13389;DHT22;6764;53.250;10.410;2022-09-09T12:24:07;21.40;99.90
13389;DHT22;6764;53.250;10.410;2022-09-09T12:26:47;21.60;99.90
13389;DHT22;6764;53.250;10.410;2022-09-09T12:31:56;21.60;99.90
13389;DHT22;6764;53.250;10.410;2022-09-09T12:37:33;22.00;99.90
13389;DHT22;6764;53.250;10.410;2022-09-09T12:40:02;22.20;99.90
13389;DHT22;6764;53.250;10.410;2022-09-09T12:42:29;22.30;99.90
13389;DHT22;6764;53.250;10.410;2022-09-09T12:45:03;22.50;99.90
13389;DHT22;6764;53.250;10.410;2022-09-09T12:50:33;22.80;99.90
13389;DHT22;6764;53.250;10.410;2022-09-09T12:53:09;22.80;99.90
13389;DHT22;6764;53.250;10.410;2022-09-09T12:56:07;22.80;99.90
13389;DHT22;6764;53.250;10.410;2022-09-09T12:58:36;22.70;99.90
13389;DHT22;6764;53.250;10.410;2022-09-09T13:01:03;22.40;99.90
13389;DHT22;6764;53.250;10.410;2022-09-09T13:03:31;22.50;99.90
13389;DHT22;6764;53.250;10.410;2022-09-09T13:05:59;22.70;99.90
13389;DHT22;6764;53.250;10.410;2022-09-09T13:08:35;22.90;99.90
13389;DHT22;6764;53.250;10.410;2022-09-09T13:11:07;23.00;99.90
13389;DHT22;6764;53.250;10.410;2022-09-09T13:13:39;23.10;99.90
13389;DHT22;6764;53.250;10.410;2022-09-09T13:16:19;23.20;99.90
13389;DHT22;6764;53.250;10.410;2022-09-09T13:18:46;23.30;99.90
13389;DHT22;6764;53.250;10.410;2022-09-09T13:21:12;23.20;99.90
13389;DHT22;6764;53.250;10.410;2022-09-09T13:23:38;23.20;99.90
13389;DHT22;6764;53.250;10.410;2022-09-09T13:26:06;23.30;99.90
13389;DHT22;6764;53.250;10.410;2022-09-09T13:28:46;23.10;99.90
13389;DHT22;6764;53.250;10.410;2022-09-09T13:31:33;22.90;99.90
13389;DHT22;6764;53.250;10.410;2022-09-09T13:33:58;22.70;99.90
13389;DHT22;6764;53.250;10.410;2022-09-09T13:36:33;22.60;99.90
13389;DHT22;6764;53.250;10.410;2022-09-09T13:39:01;22.50;99.90
13389;DHT22;6764;53.250;10.410;2022-09-09T13:41:35;22.40;99.90
13389;DHT22;6764;53.250;10.410;2022-09-09T13:44:03;22.20;99.90
13389;DHT22;6764;53.250;10.410;2022-09-09T13:46:36;22.10;99.90
13389;DHT22;6764;53.250;10.410;2022-09-09T13:54:05;21.60;99.90
13389;DHT22;6764;53.250;10.410;2022-09-09T13:56:33;21.60;99.90
13389;DHT22;6764;53.250;10.410;2022-09-09T13:58:58;21.60;99.90
13389;DHT22;6764;53.250;10.410;2022-09-09T14:01:24;21.40;99.90
13389;DHT22;6764;53.250;10.410;2022-09-09T14:03:50;21.30;99.90
13389;DHT22;6764;53.250;10.410;2022-09-09T14:06:16;21.30;99.90
13389;DHT22;6764;53.250;10.410;2022-09-09T14:08:44;21.10;99.90
13389;DHT22;6764;53.250;10.410;2022-09-09T14:11:13;20.60;99.90
13389;DHT22;6764;53.250;10.410;2022-09-09T14:13:39;20.40;99.90
13389;DHT22;6764;53.250;10.410;2022-09-09T14:16:05;20.40;99.90
13389;DHT22;6764;53.250;10.410;2022-09-09T14:18:30;20.40;99.90
13389;DHT22;6764;53.250;10.410;2022-09-09T14:20:56;20.30;99.90
13389;DHT22;6764;53.250;10.410;2022-09-09T14:23:24;20.30;99.90
13389;DHT22;6764;53.250;10.410;2022-09-09T14:25:50;20.30;99.90
13389;DHT22;6764;53.250;10.410;2022-09-09T14:28:16;20.30;99.90
13389;DHT22;6764;53.250;10.410;2022-09-09T14:30:43;20.40;99.90
13389;DHT22;6764;53.250;10.410;2022-09-09T14:33:14;20.40;99.90
13389;DHT22;6764;53.250;10.410;2022-09-09T14:35:39;20.30;99.90
13389;DHT22;6764;53.250;10.410;2022-09-09T14:38:07;20.30;99.90
13389;DHT22;6764;53.250;10.410;2022-09-09T14:40:34;20.30;99.90
13389;DHT22;6764;53.250;10.410;2022-09-09T14:43:00;20.30;99.90
13389;DHT22;6764;53.250;10.410;2022-09-09T14:45:26;20.20;99.90
13389;DHT22;6764;53.250;10.410;2022-09-09T14:47:52;20.10;99.90
13389;DHT22;6764;53.250;10.410;2022-09-09T14:50:22;20.10;99.90
13389;DHT22;6764;53.250;10.410;2022-09-09T14:52:48;20.00;99.90
13389;DHT22;6764;53.250;10.410;2022-09-09T14:55:14;19.90;99.90
13389;DHT22;6764;53.250;10.410;2022-09-09T14:57:41;19.90;99.90
13389;DHT22;6764;53.250;10.410;2022-09-09T15:00:08;19.80;99.90
13389;DHT22;6764;53.250;10.410;2022-09-09T15:02:34;19.80;99.90
13389;DHT22;6764;53.250;10.410;2022-09-09T15:05:00;19.80;99.90
13389;DHT22;6764;53.250;10.410;2022-09-09T15:07:26;19.80;99.90
13389;DHT22;6764;53.250;10.410;2022-09-09T15:09:53;19.60;99.90
13389;DHT22;6764;53.250;10.410;2022-09-09T15:12:19;19.60;99.90
13389;DHT22;6764;53.250;10.410;2022-09-09T15:14:46;19.70;99.90
13389;DHT22;6764;53.250;10.410;2022-09-09T15:17:12;19.70;99.90
13389;DHT22;6764;53.250;10.410;2022-09-09T15:19:38;19.70;99.90
13389;DHT22;6764;53.250;10.410;2022-09-09T15:22:05;19.70;99.90
13389;DHT22;6764;53.250;10.410;2022-09-09T15:24:32;19.70;99.90
13389;DHT22;6764;53.250;10.410;2022-09-09T15:26:57;19.70;99.90
13389;DHT22;6764;53.250;10.410;2022-09-09T15:29:24;19.60;99.90
13389;DHT22;6764;53.250;10.410;2022-09-09T15:31:49;19.60;99.90
13389;DHT22;6764;53.250;10.410;2022-09-09T15:34:15;19.60;99.90
13389;DHT22;6764;53.250;10.410;2022-09-09T15:36:42;19.70;99.90
13389;DHT22;6764;53.250;10.410;2022-09-09T15:39:10;19.70;99.90
13389;DHT22;6764;53.250;10.410;2022-09-09T15:41:38;19.80;99.90
13389;DHT22;6764;53.250;10.410;2022-09-09T15:44:04;19.80;99.90
13389;DHT22;6764;53.250;10.410;2022-09-09T15:46:39;19.90;99.90
13389;DHT22;6764;53.250;10.410;2022-09-09T15:51:40;20.00;99.90
13389;DHT22;6764;53.250;10.410;2022-09-09T15:54:06;20.00;99.90
13389;DHT22;6764;53.250;10.410;2022-09-09T15:56:32;20.00;99.90
13389;DHT22;6764;53.250;10.410;2022-09-09T15:58:59;20.00;99.90
13389;DHT22;6764;53.250;10.410;2022-09-09T16:01:26;20.00;99.90
13389;DHT22;6764;53.250;10.410;2022-09-09T16:03:52;20.00;99.90
13389;DHT22;6764;53.250;10.410;2022-09-09T16:06:20;20.00;99.90
13389;DHT22;6764;53.250;10.410;2022-09-09T16:08:48;20.00;99.90
13389;DHT22;6764;53.250;10.410;2022-09-09T16:11:22;19.90;99.90
13389;DHT22;6764;53.250;10.410;2022-09-09T16:13:49;20.00;99.90
13389;DHT22;6764;53.250;10.410;2022-09-09T16:16:17;20.10;99.90
13389;DHT22;6764;53.250;10.410;2022-09-09T16:18:49;20.10;99.90
13389;DHT22;6764;53.250;10.410;2022-09-09T16:23:50;20.10;99.90
13389;DHT22;6764;53.250;10.410;2022-09-09T16:26:17;20.20;99.90
13389;DHT22;6764;53.250;10.410;2022-09-09T16:28:43;20.10;99.90
13389;DHT22;6764;53.250;10.410;2022-09-09T16:31:14;20.10;99.90
13389;DHT22;6764;53.250;10.410;2022-09-09T16:33:40;20.10;99.90
13389;DHT22;6764;53.250;10.410;2022-09-09T16:36:08;20.10;99.90
13389;DHT22;6764;53.250;10.410;2022-09-09T16:38:36;20.10;99.90
13389;DHT22;6764;53.250;10.410;2022-09-09T16:41:03;20.00;99.90
13389;DHT22;6764;53.250;10.410;2022-09-09T16:43:31;20.00;99.90
13389;DHT22;6764;53.250;10.410;2022-09-09T16:45:57;20.00;99.90
13389;DHT22;6764;53.250;10.410;2022-09-09T16:48:32;20.00;99.90
13389;DHT22;6764;53.250;10.410;2022-09-09T16:51:05;19.90;99.90
13389;DHT22;6764;53.250;10.410;2022-09-09T16:53:34;19.90;99.90
13389;DHT22;6764;53.250;10.410;2022-09-09T16:56:07;19.90;99.90
13389;DHT22;6764;53.250;10.410;2022-09-09T16:58:33;19.80;99.90
13389;DHT22;6764;53.250;10.410;2022-09-09T17:01:00;19.80;99.90
13389;DHT22;6764;53.250;10.410;2022-09-09T17:03:27;19.70;99.90
13389;DHT22;6764;53.250;10.410;2022-09-09T17:05:53;19.60;99.90
13389;DHT22;6764;53.250;10.410;2022-09-09T17:08:18;19.50;99.90
13389;DHT22;6764;53.250;10.410;2022-09-09T17:10:44;19.50;99.90
13389;DHT22;6764;53.250;10.410;2022-09-09T17:13:11;19.50;99.90
13389;DHT22;6764;53.250;10.410;2022-09-09T17:15:41;19.50;99.90
13389;DHT22;6764;53.250;10.410;2022-09-09T17:18:09;19.40;99.90
13389;DHT22;6764;53.250;10.410;2022-09-09T17:20:39;19.30;99.90
13389;DHT22;6764;53.250;10.410;2022-09-09T17:23:09;19.30;99.90
13389;DHT22;6764;53.250;10.410;2022-09-09T17:25:35;19.20;99.90
13389;DHT22;6764;53.250;10.410;2022-09-09T17:28:02;19.20;99.90
13389;DHT22;6764;53.250;10.410;2022-09-09T17:30:36;19.10;99.90
13389;DHT22;6764;53.250;10.410;2022-09-09T17:33:03;19.20;99.90
13389;DHT22;6764;53.250;10.410;2022-09-09T17:35:30;19.10;99.90
13389;DHT22;6764;53.250;10.410;2022-09-09T17:37:56;19.10;99.90
13389;DHT22;6764;53.250;10.410;2022-09-09T17:40:21;19.00;99.90
13389;DHT22;6764;53.250;10.410;2022-09-09T17:42:48;18.90;99.90
13389;DHT22;6764;53.250;10.410;2022-09-09T17:45:14;18.90;99.90
13389;DHT22;6764;53.250;10.410;2022-09-09T17:47:40;18.80;99.90
13389;DHT22;6764;53.250;10.410;2022-09-09T17:50:09;18.80;99.90